Terminal Aerodrome Forecast
Issued by NWS

Home | Current Version | Previous Version | Text Only | Print | Product List | Glossary On
Versions: 1 2 3 4 5 6 7 8 9 10 11 12 13 14 15 16
991
FTUS42 KJAX 121550 AAB
TAFCRG
TAF AMD
KCRG 121550Z 1216/1312 24012G20KT P6SM FEW040
     FM130000 25008KT P6SM FEW040 SCT250
     FM130600 33008KT P6SM SCT040=

USA.gov is the U.S. government's official web portal to all federal, state and local government web resources and services.